Richlandtown, PA (18955)

6:55 AM EST on March 04, 2015 (GMT -0500)
Haycock Twp. | Change Station
CLOSE
Current Station
Personal Weather Station
Location: Quakertown, PA
Elevation: 580 ft
Nearby Weather Stations
Active Advisory: Winter Storm Warning

Elev 580 ft 40.49 °N, 75.26 °W | Updated 11 seconds ago

Ice Pellets
Ice Pellets
32.8 °F
Feels Like 33 °F
N
0.0
Wind Variable Wind from ENE
Gusts 0.0 mph

Today
High -- | Low -- °F
--% Chance of Precip.
Yesterday
High -- | Low -- °F
Precip. -- in
6:30 AM 5:55 PM
Waxing Gibbous, 99% visible
Pressure 29.82 in
Visibility 1.5 miles
Clouds Overcast 1000 ft
Windchill 33 °F
Dew Point 33 °F
Humidity 100%
Rainfall 0.00 in
Snow Depth Not available.
UV 0 out of 12
Pollen .60 out of 12
Air Quality Not available.
Flu Activity Not available.
METAR KUKT 041135Z AUTO 00000KT 1 1/2SM OVC010 00/00 A2982 RMK AO1

More Conditions Fewer Conditions

Pressure 29.82 in
Visibility 1.5 miles
Clouds Overcast 1000 ft
Windchill 33 °F
Dew Point 33 °F
Humidity 100%
Rainfall 0.00 in
Snow Depth Not available.
UV 0 out of 12
Pollen .60 out of 12
Air Quality Not available.
Flu Activity Not available.
METAR KUKT 041135Z AUTO 00000KT 1 1/2SM OVC010 00/00 A2982 RMK AO1

More Conditions Fewer Conditions

10-Day Weather Forecast

Almanac

Astronomy

Mar. 04, 2015 Rise Set
Actual Time
Civil Twilight
Nautical Twilight
Astronomical Twilight
Moon
Length of Visible Light
Length of Day
Tomorrow will be .
, % of the Moon is Illuminated

Today's Extremes

State Highs State Lows

Community

WunderPhotos

Upload Photos

1,802,435 photos uploaded!

WunderBlogs® & News

Nearby

Air Quality

  Air Quality AQ Index Pollutant
Not available.

Snow Depth

Station Depth Elevation

Earthquake Activity

City Distance Mag. Time & Date
Minimum magnitude displayed is 2.5.

Coastal Water Temperatures

Place Temperature

Nearby Weather Stations

Winter Storm Warning
Statement as of 5:48 AM EST on March 04, 2015

... Winter Storm Warning remains in effect from 7 PM this evening
to 7 PM EST Thursday...

* hazard types... a steady accumulating snow, possibly heavy at
times, from tonight into Thursday.

* Snow accumulations... the potential for 5 to 9 inches.

* Timing... rain will change to snow tonight and the snow will
continue into Thursday.

* Impacts... widespread and substantial impacts on travel are
expected for late tonight and Thursday.

Precautionary/preparedness actions...

This Winter Storm Warning means that significant amounts of
snow are expected. The snow will make travel very hazardous or
impossible.